createdAt,value
2018-07-13T00:00:02.371Z,99322.00
2018-07-13T00:02:08.556Z,99319.00
2018-07-13T00:04:13.794Z,99321.00
2018-07-13T00:06:18.378Z,99316.00
2018-07-13T00:08:23.443Z,99321.00
2018-07-13T00:10:26.992Z,99318.00
2018-07-13T00:12:31.170Z,99325.00
2018-07-13T00:14:34.824Z,99329.00
2018-07-13T00:16:38.367Z,99325.00
2018-07-13T00:18:42.511Z,99326.00
2018-07-13T00:20:46.054Z,99333.00
2018-07-13T00:24:58.390Z,99331.00
2018-07-13T00:27:02.147Z,99329.00
2018-07-13T00:29:09.406Z,99333.00
2018-07-13T00:31:15.944Z,99322.00
2018-07-13T00:33:23.474Z,99325.00
2018-07-13T00:35:27.000Z,99327.00
2018-07-13T00:37:31.097Z,99323.00
2018-07-13T00:39:34.867Z,99333.00
2018-07-13T00:41:38.610Z,99326.00
2018-07-13T00:43:42.921Z,99333.00
2018-07-13T00:45:46.410Z,99329.00
2018-07-13T00:47:50.111Z,99330.00
2018-07-13T00:49:54.662Z,99330.00
2018-07-13T00:51:58.366Z,99330.00
2018-07-13T00:54:02.264Z,99340.00
2018-07-13T00:56:08.327Z,99336.00
2018-07-13T00:58:14.507Z,99342.00
2018-07-13T01:00:25.064Z,99333.00
2018-07-13T01:02:29.224Z,99333.00
2018-07-13T01:04:33.063Z,99338.00
2018-07-13T01:06:36.840Z,99339.00
2018-07-13T01:08:40.630Z,99339.00
2018-07-13T01:10:45.142Z,99335.00
2018-07-13T01:12:48.902Z,99340.00
2018-07-13T01:14:54.091Z,99338.00
2018-07-13T01:16:57.871Z,99337.00
2018-07-13T01:19:01.828Z,99338.00
2018-07-13T01:21:07.912Z,99333.00
2018-07-13T01:23:14.984Z,99337.00
2018-07-13T01:25:20.681Z,99340.00
2018-07-13T01:27:28.625Z,99336.00
2018-07-13T01:29:32.866Z,99344.00
2018-07-13T01:31:36.629Z,99338.00
2018-07-13T01:33:41.397Z,99342.00
2018-07-13T01:35:45.576Z,99339.00
2018-07-13T01:37:49.557Z,99336.00
2018-07-13T01:39:54.205Z,99341.00
2018-07-13T01:42:00.073Z,99341.00
2018-07-13T01:44:04.823Z,99336.00
2018-07-13T01:46:13.029Z,99336.00
2018-07-13T01:48:23.748Z,99337.00
2018-07-13T01:50:27.934Z,99333.00
2018-07-13T01:52:31.864Z,99333.00
2018-07-13T01:54:35.716Z,99331.00
2018-07-13T01:56:39.510Z,99341.00
2018-07-13T01:58:43.812Z,99334.00
2018-07-13T02:00:47.609Z,99339.00
2018-07-13T02:02:51.430Z,99342.00
2018-07-13T02:04:55.701Z,99336.00
2018-07-13T02:06:59.497Z,99337.00
2018-07-13T02:09:03.095Z,99340.00
2018-07-13T02:11:10.349Z,99335.00
2018-07-13T02:13:16.400Z,99333.00
2018-07-13T02:15:21.113Z,99340.00
2018-07-13T02:17:26.449Z,99339.00
2018-07-13T02:19:30.506Z,99346.00
2018-07-13T02:21:34.346Z,99350.00
2018-07-13T02:23:38.534Z,99343.00
2018-07-13T02:25:42.358Z,99346.00
2018-07-13T02:27:45.865Z,99352.00
2018-07-13T02:29:50.414Z,99352.00
2018-07-13T02:31:54.264Z,99354.00
2018-07-13T02:33:58.468Z,99354.00
2018-07-13T02:36:03.381Z,99363.00
2018-07-13T02:38:11.455Z,99362.00
2018-07-13T02:40:20.075Z,99362.00
2018-07-13T02:42:26.259Z,99362.00
2018-07-13T02:44:31.128Z,99368.00
2018-07-13T02:46:34.754Z,99374.00
2018-07-13T02:48:39.046Z,99364.00
2018-07-13T02:50:42.882Z,99367.00
2018-07-13T02:52:46.899Z,99363.00
2018-07-13T02:54:51.152Z,99371.00
2018-07-13T02:56:54.814Z,99375.00
2018-07-13T02:58:58.370Z,99376.00
2018-07-13T03:01:02.738Z,99380.00
2018-07-13T03:03:10.046Z,99389.00
2018-07-13T03:05:15.429Z,99395.00
2018-07-13T03:07:21.958Z,99392.00
2018-07-13T03:09:26.837Z,99393.00
2018-07-13T03:11:30.567Z,99399.00
2018-07-13T03:13:34.679Z,99398.00
2018-07-13T03:15:38.254Z,99400.00
2018-07-13T03:17:41.840Z,99402.00
2018-07-13T03:19:45.895Z,99400.00
2018-07-13T03:21:49.608Z,99404.00
2018-07-13T03:23:53.288Z,99401.00
2018-07-13T03:25:58.363Z,99405.00
2018-07-13T03:28:02.017Z,99405.00
2018-07-13T03:30:06.074Z,99412.00
2018-07-13T03:32:14.207Z,99415.00
2018-07-13T03:34:22.467Z,99415.00
2018-07-13T03:36:26.173Z,99414.00
2018-07-13T03:38:30.236Z,99416.00
2018-07-13T03:40:33.949Z,99419.00
2018-07-13T03:42:37.869Z,99420.00
2018-07-13T03:44:42.156Z,99425.00
2018-07-13T03:46:45.831Z,99422.00
2018-07-13T03:48:49.504Z,99427.00
2018-07-13T03:50:53.604Z,99428.00
2018-07-13T03:52:57.741Z,99426.00
2018-07-13T03:55:01.365Z,99425.00
2018-07-13T03:57:06.660Z,99422.00
2018-07-13T03:59:14.337Z,99425.00
2018-07-13T04:01:20.946Z,99431.00
2018-07-13T04:03:25.521Z,99427.00
2018-07-13T04:05:29.257Z,99429.00
2018-07-13T04:07:33.105Z,99432.00
2018-07-13T04:09:37.300Z,99426.00
2018-07-13T04:11:40.944Z,99428.00
2018-07-13T04:13:45.014Z,99427.00
2018-07-13T04:15:49.351Z,99430.00
2018-07-13T04:17:53.001Z,99423.00
2018-07-13T04:22:52.163Z,99418.00
2018-07-13T04:24:55.953Z,99423.00
2018-07-13T04:26:59.491Z,99423.00
2018-07-13T04:29:03.770Z,99421.00
2018-07-13T04:31:10.521Z,99421.00
2018-07-13T04:33:15.471Z,99420.00
2018-07-13T04:35:20.006Z,99417.00
2018-07-13T04:37:24.707Z,99413.00
2018-07-13T04:39:28.295Z,99414.00
2018-07-13T04:41:32.084Z,99410.00
2018-07-13T04:43:35.815Z,99409.00
2018-07-13T04:45:39.459Z,99409.00
2018-07-13T04:47:43.376Z,99409.00
2018-07-13T04:49:47.032Z,99413.00
2018-07-13T04:52:53.940Z,99409.00
2018-07-13T04:54:57.920Z,99411.00
2018-07-13T04:57:01.532Z,99420.00
2018-07-13T04:59:05.659Z,99421.00
2018-07-13T05:01:12.921Z,99418.00
2018-07-13T05:03:23.134Z,99419.00
2018-07-13T05:05:27.019Z,99421.00
2018-07-13T05:07:31.348Z,99421.00
2018-07-13T05:09:34.958Z,99427.00
2018-07-13T05:11:39.036Z,99426.00
2018-07-13T05:13:43.027Z,99425.00
2018-07-13T05:15:46.735Z,99430.00
2018-07-13T05:17:50.482Z,99425.00
2018-07-13T05:19:54.330Z,99433.00
2018-07-13T05:21:57.848Z,99428.00
2018-07-13T05:24:01.440Z,99433.00
2018-07-13T05:26:07.177Z,99430.00
2018-07-13T05:28:14.683Z,99428.00
2018-07-13T05:30:21.992Z,99426.00
2018-07-13T05:32:26.765Z,99421.00
2018-07-13T05:34:30.936Z,99424.00
2018-07-13T05:36:34.897Z,99421.00
2018-07-13T05:38:38.892Z,99423.00
2018-07-13T05:40:42.692Z,99422.00
2018-07-13T05:42:46.435Z,99431.00
2018-07-13T05:44:50.403Z,99434.00
2018-07-13T05:46:53.951Z,99437.00
2018-07-13T05:48:57.444Z,99440.00
2018-07-13T05:51:01.324Z,99447.00
2018-07-13T05:53:06.014Z,99446.00
2018-07-13T05:55:13.197Z,99454.00
2018-07-13T05:57:18.948Z,99452.00
2018-07-13T05:59:23.639Z,99450.00
2018-07-13T06:01:27.544Z,99449.00
2018-07-13T06:03:31.043Z,99449.00
2018-07-13T06:05:34.957Z,99445.00
2018-07-13T06:07:38.923Z,99455.00
2018-07-13T06:09:42.862Z,99452.00
2018-07-13T06:11:46.407Z,99458.00
2018-07-13T06:13:50.234Z,99456.00
2018-07-13T06:15:54.024Z,99464.00
2018-07-13T06:17:57.951Z,99460.00
2018-07-13T06:20:01.535Z,99459.00
2018-07-13T06:22:08.213Z,99461.00
2018-07-13T06:24:14.754Z,99464.00
2018-07-13T06:26:22.217Z,99463.00
2018-07-13T06:28:26.231Z,99464.00
2018-07-13T06:30:29.717Z,99460.00
2018-07-13T06:32:33.271Z,99459.00
2018-07-13T06:34:37.223Z,99467.00
2018-07-13T06:36:40.748Z,99459.00
2018-07-13T06:38:44.447Z,99460.00
2018-07-13T06:40:48.995Z,99461.00
2018-07-13T06:42:52.813Z,99460.00
2018-07-13T06:44:56.489Z,99457.00
2018-07-13T06:47:00.221Z,99459.00
2018-07-13T06:49:05.204Z,99469.00
2018-07-13T06:51:12.843Z,99468.00
2018-07-13T06:53:20.076Z,99460.00
2018-07-13T06:55:24.452Z,99467.00
2018-07-13T06:59:39.656Z,99464.00
2018-07-13T07:01:44.073Z,99471.00
2018-07-13T07:04:54.828Z,99466.00
2018-07-13T07:06:59.693Z,99463.00
2018-07-13T07:09:03.949Z,99467.00
2018-07-13T07:11:12.092Z,99468.00
2018-07-13T07:13:28.023Z,99471.00
2018-07-13T07:15:31.671Z,99471.00
2018-07-13T07:17:35.822Z,99475.00
2018-07-13T07:19:39.615Z,99473.00
2018-07-13T07:21:44.659Z,99473.00
2018-07-13T07:23:48.293Z,99474.00
2018-07-13T07:25:52.431Z,99469.00
2018-07-13T07:27:56.335Z,99477.00
2018-07-13T07:30:00.200Z,99477.00
2018-07-13T07:32:04.067Z,99471.00
2018-07-13T07:34:11.328Z,99468.00
2018-07-13T07:36:17.977Z,99475.00
2018-07-13T07:38:26.167Z,99471.00
2018-07-13T07:40:29.899Z,99475.00
2018-07-13T07:42:34.611Z,99471.00
2018-07-13T07:44:38.201Z,99463.00
2018-07-13T07:46:42.011Z,99466.00
2018-07-13T07:48:46.810Z,99474.00
2018-07-13T07:50:51.331Z,99471.00
2018-07-13T07:52:56.998Z,99470.00
2018-07-13T07:55:00.851Z,99481.00
2018-07-13T07:57:05.167Z,99471.00
2018-07-13T07:59:12.292Z,99469.00
2018-07-13T08:01:19.736Z,99466.00
2018-07-13T08:03:25.877Z,99478.00
2018-07-13T08:05:30.184Z,99472.00
2018-07-13T08:07:34.781Z,99473.00
2018-07-13T08:09:38.968Z,99469.00
2018-07-13T08:11:42.747Z,99476.00
2018-07-13T08:13:46.733Z,99463.00
2018-07-13T08:15:50.313Z,99469.00
2018-07-13T08:17:53.756Z,99466.00
2018-07-13T08:19:57.620Z,99459.00
2018-07-13T08:22:10.066Z,99460.00
2018-07-13T08:24:22.339Z,99458.00
2018-07-13T08:26:28.000Z,99455.00
2018-07-13T08:28:32.491Z,99455.00
2018-07-13T08:30:42.347Z,99473.00
2018-07-13T08:32:46.415Z,99468.00
2018-07-13T08:34:49.905Z,99463.00
2018-07-13T08:36:53.458Z,99454.00
2018-07-13T08:38:57.226Z,99460.00
2018-07-13T08:41:15.327Z,99462.00
2018-07-13T08:43:23.618Z,99454.00
2018-07-13T08:45:28.751Z,99458.00
2018-07-13T08:47:32.541Z,99462.00
2018-07-13T08:49:38.361Z,99455.00
2018-07-13T08:51:42.593Z,99447.00
2018-07-13T08:53:46.655Z,99455.00
2018-07-13T08:55:50.564Z,99457.00
2018-07-13T08:57:54.665Z,99459.00
2018-07-13T08:59:58.285Z,99457.00
2018-07-13T09:02:01.817Z,99455.00
2018-07-13T09:04:08.242Z,99450.00
2018-07-13T09:06:16.025Z,99443.00
2018-07-13T09:08:22.768Z,99443.00
2018-07-13T09:10:26.930Z,99448.00
2018-07-13T09:12:31.165Z,99462.00
2018-07-13T09:14:34.949Z,99452.00
2018-07-13T09:16:39.499Z,99441.00
2018-07-13T09:18:43.324Z,99441.00
2018-07-13T09:20:46.955Z,99452.00
2018-07-13T09:22:50.980Z,99440.00
2018-07-13T09:24:54.494Z,99442.00
2018-07-13T09:26:58.226Z,99445.00
2018-07-13T09:29:02.328Z,99448.00
2018-07-13T09:31:08.585Z,99450.00
2018-07-13T09:33:15.596Z,99445.00
2018-07-13T09:35:23.393Z,99442.00
2018-07-13T09:37:27.054Z,99445.00
2018-07-13T09:39:31.389Z,99439.00
2018-07-13T09:41:35.417Z,99459.00
2018-07-13T09:43:39.985Z,99464.00
2018-07-13T09:45:43.869Z,99458.00
2018-07-13T09:47:50.439Z,99444.00
2018-07-13T09:49:54.628Z,99446.00
2018-07-13T09:52:01.331Z,99445.00
2018-07-13T09:54:09.948Z,99440.00
2018-07-13T09:56:32.660Z,99429.00
2018-07-13T09:58:38.190Z,99436.00
2018-07-13T10:00:47.766Z,99432.00
2018-07-13T10:02:53.455Z,99442.00
2018-07-13T10:04:57.456Z,99427.00
2018-07-13T10:07:01.410Z,99439.00
2018-07-13T10:09:09.131Z,99450.00
2018-07-13T10:11:17.978Z,99432.00
2018-07-13T10:13:25.861Z,99446.00
2018-07-13T10:15:29.642Z,99435.00
2018-07-13T10:17:34.489Z,99429.00
2018-07-13T10:19:39.360Z,99437.00
2018-07-13T10:21:48.534Z,99433.00
2018-07-13T10:24:02.125Z,99429.00
2018-07-13T10:26:11.295Z,99425.00
2018-07-13T10:28:19.828Z,99436.00
2018-07-13T10:30:24.758Z,99406.00
